sensor_id;sensor_type;location;lat;lon;timestamp;temperature;humidity
58983;DHT22;44771;49.982;8.560;2023-04-15T00:02:15;1.50;99.90
58983;DHT22;44771;49.982;8.560;2023-04-15T00:07:17;1.50;99.90
58983;DHT22;44771;49.982;8.560;2023-04-15T00:12:18;1.30;99.90
58983;DHT22;44771;49.982;8.560;2023-04-15T00:17:22;0.80;99.90
58983;DHT22;44771;49.982;8.560;2023-04-15T00:22:23;0.60;99.90
58983;DHT22;44771;49.982;8.560;2023-04-15T00:27:25;0.60;99.90
58983;DHT22;44771;49.982;8.560;2023-04-15T00:32:28;0.60;99.90
58983;DHT22;44771;49.982;8.560;2023-04-15T00:37:30;0.60;99.90
58983;DHT22;44771;49.982;8.560;2023-04-15T00:42:33;0.50;99.90
58983;DHT22;44771;49.982;8.560;2023-04-15T00:47:38;0.40;99.90
58983;DHT22;44771;49.982;8.560;2023-04-15T00:52:41;0.30;99.90
58983;DHT22;44771;49.982;8.560;2023-04-15T00:57:43;0.30;99.90
58983;DHT22;44771;49.982;8.560;2023-04-15T01:02:46;0.10;99.90
58983;DHT22;44771;49.982;8.560;2023-04-15T01:07:48;0.10;99.90
58983;DHT22;44771;49.982;8.560;2023-04-15T01:12:50;0.20;99.90
58983;DHT22;44771;49.982;8.560;2023-04-15T01:17:53;0.20;99.90
58983;DHT22;44771;49.982;8.560;2023-04-15T01:22:55;0.30;99.90
58983;DHT22;44771;49.982;8.560;2023-04-15T01:27:59;0.30;99.90
58983;DHT22;44771;49.982;8.560;2023-04-15T01:33:00;0.30;99.90
58983;DHT22;44771;49.982;8.560;2023-04-15T01:38:05;0.20;99.90
58983;DHT22;44771;49.982;8.560;2023-04-15T01:43:09;0.20;99.90
58983;DHT22;44771;49.982;8.560;2023-04-15T01:48:10;0.10;99.90
58983;DHT22;44771;49.982;8.560;2023-04-15T01:53:12;0.00;99.90
58983;DHT22;44771;49.982;8.560;2023-04-15T01:58:15;-0.10;99.90
58983;DHT22;44771;49.982;8.560;2023-04-15T02:03:17;-0.10;99.90
58983;DHT22;44771;49.982;8.560;2023-04-15T02:08:19;-0.10;99.90
58983;DHT22;44771;49.982;8.560;2023-04-15T02:13:22;0.00;99.90
58983;DHT22;44771;49.982;8.560;2023-04-15T02:18:24;-0.10;99.90
58983;DHT22;44771;49.982;8.560;2023-04-15T02:23:25;0.00;99.90
58983;DHT22;44771;49.982;8.560;2023-04-15T02:28:28;-0.10;99.90
58983;DHT22;44771;49.982;8.560;2023-04-15T02:33:30;0.00;99.90
58983;DHT22;44771;49.982;8.560;2023-04-15T02:38:32;0.00;99.90
58983;DHT22;44771;49.982;8.560;2023-04-15T02:43:35;-0.10;99.90
58983;DHT22;44771;49.982;8.560;2023-04-15T02:48:36;-0.20;99.90
58983;DHT22;44771;49.982;8.560;2023-04-15T02:53:38;-0.20;99.90
58983;DHT22;44771;49.982;8.560;2023-04-15T02:58:42;-0.10;99.90
58983;DHT22;44771;49.982;8.560;2023-04-15T03:03:44;-0.20;99.90
58983;DHT22;44771;49.982;8.560;2023-04-15T03:08:46;-0.10;99.90
58983;DHT22;44771;49.982;8.560;2023-04-15T03:13:49;0.00;99.90
58983;DHT22;44771;49.982;8.560;2023-04-15T03:18:50;-0.10;99.90
58983;DHT22;44771;49.982;8.560;2023-04-15T03:23:52;-0.20;99.90
58983;DHT22;44771;49.982;8.560;2023-04-15T03:28:56;-0.30;99.90
58983;DHT22;44771;49.982;8.560;2023-04-15T03:33:57;-0.30;99.90
58983;DHT22;44771;49.982;8.560;2023-04-15T03:38:59;-0.40;99.90
58983;DHT22;44771;49.982;8.560;2023-04-15T03:44:02;-0.60;99.90
58983;DHT22;44771;49.982;8.560;2023-04-15T03:49:05;-0.60;99.90
58983;DHT22;44771;49.982;8.560;2023-04-15T03:54:07;-0.60;99.90
58983;DHT22;44771;49.982;8.560;2023-04-15T03:59:10;-0.70;99.90
58983;DHT22;44771;49.982;8.560;2023-04-15T04:04:12;-0.40;99.90
58983;DHT22;44771;49.982;8.560;2023-04-15T04:09:14;-0.40;99.90
58983;DHT22;44771;49.982;8.560;2023-04-15T04:14:17;-0.40;99.90
58983;DHT22;44771;49.982;8.560;2023-04-15T04:19:18;-0.40;99.90
58983;DHT22;44771;49.982;8.560;2023-04-15T04:24:20;-0.30;99.90
58983;DHT22;44771;49.982;8.560;2023-04-15T04:29:23;-0.10;99.90
58983;DHT22;44771;49.982;8.560;2023-04-15T04:34:25;-0.20;99.90
58983;DHT22;44771;49.982;8.560;2023-04-15T04:39:27;-0.30;99.90
58983;DHT22;44771;49.982;8.560;2023-04-15T04:44:30;-0.30;99.90
58983;DHT22;44771;49.982;8.560;2023-04-15T04:49:31;-0.30;99.90
58983;DHT22;44771;49.982;8.560;2023-04-15T04:54:33;-0.30;99.90
58983;DHT22;44771;49.982;8.560;2023-04-15T04:59:36;-0.30;99.90
58983;DHT22;44771;49.982;8.560;2023-04-15T05:04:38;-0.10;99.90
58983;DHT22;44771;49.982;8.560;2023-04-15T05:09:39;0.00;99.90
58983;DHT22;44771;49.982;8.560;2023-04-15T05:14:42;0.00;99.90
58983;DHT22;44771;49.982;8.560;2023-04-15T05:19:44;0.10;99.90
58983;DHT22;44771;49.982;8.560;2023-04-15T05:24:46;0.10;99.90
58983;DHT22;44771;49.982;8.560;2023-04-15T05:29:49;0.30;99.90
58983;DHT22;44771;49.982;8.560;2023-04-15T05:34:51;0.40;99.90
58983;DHT22;44771;49.982;8.560;2023-04-15T05:39:52;0.50;99.90
58983;DHT22;44771;49.982;8.560;2023-04-15T05:44:55;0.60;99.90
58983;DHT22;44771;49.982;8.560;2023-04-15T05:49:57;0.80;99.90
58983;DHT22;44771;49.982;8.560;2023-04-15T05:54:58;1.00;99.90
58983;DHT22;44771;49.982;8.560;2023-04-15T06:00:02;1.30;99.90
58983;DHT22;44771;49.982;8.560;2023-04-15T06:05:05;1.30;99.90
58983;DHT22;44771;49.982;8.560;2023-04-15T06:10:07;1.50;99.90
58983;DHT22;44771;49.982;8.560;2023-04-15T06:15:11;1.70;99.90
58983;DHT22;44771;49.982;8.560;2023-04-15T06:20:12;2.00;99.90
58983;DHT22;44771;49.982;8.560;2023-04-15T06:25:14;2.40;99.90
58983;DHT22;44771;49.982;8.560;2023-04-15T06:30:17;2.80;99.90
58983;DHT22;44771;49.982;8.560;2023-04-15T06:35:19;3.00;99.90
58983;DHT22;44771;49.982;8.560;2023-04-15T06:40:21;3.30;99.90
58983;DHT22;44771;49.982;8.560;2023-04-15T06:45:24;3.60;99.90
58983;DHT22;44771;49.982;8.560;2023-04-15T06:50:26;3.90;99.90
58983;DHT22;44771;49.982;8.560;2023-04-15T06:55:28;4.10;99.90
58983;DHT22;44771;49.982;8.560;2023-04-15T07:00:31;4.50;99.90
58983;DHT22;44771;49.982;8.560;2023-04-15T07:05:33;4.80;99.90
58983;DHT22;44771;49.982;8.560;2023-04-15T07:10:34;5.00;99.90
58983;DHT22;44771;49.982;8.560;2023-04-15T07:15:37;5.30;99.90
58983;DHT22;44771;49.982;8.560;2023-04-15T07:20:39;5.60;99.90
58983;DHT22;44771;49.982;8.560;2023-04-15T07:25:41;6.00;99.90
58983;DHT22;44771;49.982;8.560;2023-04-15T07:30:44;6.20;99.90
58983;DHT22;44771;49.982;8.560;2023-04-15T07:35:46;6.40;99.90
58983;DHT22;44771;49.982;8.560;2023-04-15T07:40:47;6.70;99.90
58983;DHT22;44771;49.982;8.560;2023-04-15T07:45:50;7.10;99.90
58983;DHT22;44771;49.982;8.560;2023-04-15T07:50:52;7.40;99.90
58983;DHT22;44771;49.982;8.560;2023-04-15T07:55:54;7.90;99.90
58983;DHT22;44771;49.982;8.560;2023-04-15T08:00:57;8.30;99.90
58983;DHT22;44771;49.982;8.560;2023-04-15T08:05:59;8.60;99.90
58983;DHT22;44771;49.982;8.560;2023-04-15T08:11:01;9.00;99.90
58983;DHT22;44771;49.982;8.560;2023-04-15T08:16:21;9.80;99.90
58983;DHT22;44771;49.982;8.560;2023-04-15T08:21:23;10.50;99.90
58983;DHT22;44771;49.982;8.560;2023-04-15T08:26:25;10.80;99.90
58983;DHT22;44771;49.982;8.560;2023-04-15T08:31:28;10.80;99.90
58983;DHT22;44771;49.982;8.560;2023-04-15T08:36:30;10.70;99.90
58983;DHT22;44771;49.982;8.560;2023-04-15T08:41:37;10.80;99.90
58983;DHT22;44771;49.982;8.560;2023-04-15T08:46:41;11.00;99.90
58983;DHT22;44771;49.982;8.560;2023-04-15T08:51:43;11.00;99.90
58983;DHT22;44771;49.982;8.560;2023-04-15T08:56:45;10.80;99.90
58983;DHT22;44771;49.982;8.560;2023-04-15T09:01:50;10.90;99.90
58983;DHT22;44771;49.982;8.560;2023-04-15T09:06:52;10.90;99.90
58983;DHT22;44771;49.982;8.560;2023-04-15T09:11:54;10.80;99.90
58983;DHT22;44771;49.982;8.560;2023-04-15T09:16:58;11.10;99.90
58983;DHT22;44771;49.982;8.560;2023-04-15T09:22:01;11.50;99.70
58983;DHT22;44771;49.982;8.560;2023-04-15T09:27:03;11.80;99.60
58983;DHT22;44771;49.982;8.560;2023-04-15T09:32:15;11.90;98.90
58983;DHT22;44771;49.982;8.560;2023-04-15T09:37:16;12.00;94.70
58983;DHT22;44771;49.982;8.560;2023-04-15T09:42:32;11.90;94.70
58983;DHT22;44771;49.982;8.560;2023-04-15T09:47:35;11.90;97.30
58983;DHT22;44771;49.982;8.560;2023-04-15T09:52:41;12.20;96.90
58983;DHT22;44771;49.982;8.560;2023-04-15T09:57:44;12.20;97.30
58983;DHT22;44771;49.982;8.560;2023-04-15T10:02:47;11.90;97.50
58983;DHT22;44771;49.982;8.560;2023-04-15T10:07:49;11.80;96.60
58983;DHT22;44771;49.982;8.560;2023-04-15T10:12:53;11.90;94.90
58983;DHT22;44771;49.982;8.560;2023-04-15T10:17:57;12.00;95.40
58983;DHT22;44771;49.982;8.560;2023-04-15T10:23:01;12.30;96.70
58983;DHT22;44771;49.982;8.560;2023-04-15T10:28:04;12.10;92.60
58983;DHT22;44771;49.982;8.560;2023-04-15T10:33:08;11.90;95.10
58983;DHT22;44771;49.982;8.560;2023-04-15T10:38:37;12.20;97.00
58983;DHT22;44771;49.982;8.560;2023-04-15T10:43:39;12.50;92.40
58983;DHT22;44771;49.982;8.560;2023-04-15T10:48:48;12.00;94.40
58983;DHT22;44771;49.982;8.560;2023-04-15T10:53:50;12.00;95.80
58983;DHT22;44771;49.982;8.560;2023-04-15T10:58:52;12.00;95.30
58983;DHT22;44771;49.982;8.560;2023-04-15T11:03:55;12.30;95.40
58983;DHT22;44771;49.982;8.560;2023-04-15T11:08:58;12.50;95.30
58983;DHT22;44771;49.982;8.560;2023-04-15T11:14:01;12.90;93.10
58983;DHT22;44771;49.982;8.560;2023-04-15T11:19:05;12.80;88.60
58983;DHT22;44771;49.982;8.560;2023-04-15T11:24:06;12.40;91.20
58983;DHT22;44771;49.982;8.560;2023-04-15T11:29:16;12.40;90.80
58983;DHT22;44771;49.982;8.560;2023-04-15T11:34:23;12.90;90.90
58983;DHT22;44771;49.982;8.560;2023-04-15T11:39:24;13.10;92.00
58983;DHT22;44771;49.982;8.560;2023-04-15T11:44:26;13.80;90.00
58983;DHT22;44771;49.982;8.560;2023-04-15T11:49:29;14.10;88.60
58983;DHT22;44771;49.982;8.560;2023-04-15T11:54:31;13.00;93.10
58983;DHT22;44771;49.982;8.560;2023-04-15T11:59:41;13.00;93.00
58983;DHT22;44771;49.982;8.560;2023-04-15T12:04:48;12.90;91.80
58983;DHT22;44771;49.982;8.560;2023-04-15T12:09:54;12.30;92.60
58983;DHT22;44771;49.982;8.560;2023-04-15T12:14:56;11.70;94.50
58983;DHT22;44771;49.982;8.560;2023-04-15T12:19:59;11.40;97.30
58983;DHT22;44771;49.982;8.560;2023-04-15T12:25:01;11.10;99.90
58983;DHT22;44771;49.982;8.560;2023-04-15T12:30:03;11.10;99.90
58983;DHT22;44771;49.982;8.560;2023-04-15T12:35:07;10.70;99.90
58983;DHT22;44771;49.982;8.560;2023-04-15T12:40:09;10.20;99.90
58983;DHT22;44771;49.982;8.560;2023-04-15T12:45:11;10.20;99.90
58983;DHT22;44771;49.982;8.560;2023-04-15T12:50:15;10.40;99.90
58983;DHT22;44771;49.982;8.560;2023-04-15T12:55:16;10.30;99.90
58983;DHT22;44771;49.982;8.560;2023-04-15T13:00:18;9.70;99.90
58983;DHT22;44771;49.982;8.560;2023-04-15T13:05:21;9.40;99.90
58983;DHT22;44771;49.982;8.560;2023-04-15T13:10:23;9.50;99.90
58983;DHT22;44771;49.982;8.560;2023-04-15T13:15:25;9.60;99.90
58983;DHT22;44771;49.982;8.560;2023-04-15T13:20:28;9.40;99.90
58983;DHT22;44771;49.982;8.560;2023-04-15T13:25:30;9.40;99.90
58983;DHT22;44771;49.982;8.560;2023-04-15T13:30:31;9.30;99.90
58983;DHT22;44771;49.982;8.560;2023-04-15T13:35:34;9.20;99.90
58983;DHT22;44771;49.982;8.560;2023-04-15T13:40:36;9.40;99.90
58983;DHT22;44771;49.982;8.560;2023-04-15T13:45:38;9.70;99.90
58983;DHT22;44771;49.982;8.560;2023-04-15T13:50:41;10.00;99.90
58983;DHT22;44771;49.982;8.560;2023-04-15T13:55:43;10.00;99.90
58983;DHT22;44771;49.982;8.560;2023-04-15T14:00:44;10.00;99.90
58983;DHT22;44771;49.982;8.560;2023-04-15T14:05:47;10.00;99.90
58983;DHT22;44771;49.982;8.560;2023-04-15T14:10:49;9.60;99.90
58983;DHT22;44771;49.982;8.560;2023-04-15T14:15:51;9.20;99.90
58983;DHT22;44771;49.982;8.560;2023-04-15T14:20:56;9.00;99.90
58983;DHT22;44771;49.982;8.560;2023-04-15T14:26:00;8.80;99.90
58983;DHT22;44771;49.982;8.560;2023-04-15T14:31:02;8.80;99.90
58983;DHT22;44771;49.982;8.560;2023-04-15T14:36:06;8.70;99.90
58983;DHT22;44771;49.982;8.560;2023-04-15T14:41:08;8.70;99.90
58983;DHT22;44771;49.982;8.560;2023-04-15T14:46:10;8.70;99.90
58983;DHT22;44771;49.982;8.560;2023-04-15T14:51:13;8.70;99.90
58983;DHT22;44771;49.982;8.560;2023-04-15T14:56:15;8.70;99.90
58983;DHT22;44771;49.982;8.560;2023-04-15T15:01:16;8.70;99.90
58983;DHT22;44771;49.982;8.560;2023-04-15T15:06:21;8.60;99.90
58983;DHT22;44771;49.982;8.560;2023-04-15T15:11:23;8.60;99.90
58983;DHT22;44771;49.982;8.560;2023-04-15T15:16:24;8.60;99.90
58983;DHT22;44771;49.982;8.560;2023-04-15T15:21:28;8.60;99.90
58983;DHT22;44771;49.982;8.560;2023-04-15T15:26:29;8.70;99.90
58983;DHT22;44771;49.982;8.560;2023-04-15T15:31:32;8.60;99.90
58983;DHT22;44771;49.982;8.560;2023-04-15T15:36:36;8.50;99.90
58983;DHT22;44771;49.982;8.560;2023-04-15T15:41:38;8.40;99.90
58983;DHT22;44771;49.982;8.560;2023-04-15T15:46:39;8.40;99.90
58983;DHT22;44771;49.982;8.560;2023-04-15T15:51:42;8.30;99.90
58983;DHT22;44771;49.982;8.560;2023-04-15T15:56:44;8.20;99.90
58983;DHT22;44771;49.982;8.560;2023-04-15T16:01:46;8.10;99.90
58983;DHT22;44771;49.982;8.560;2023-04-15T16:06:49;8.20;99.90
58983;DHT22;44771;49.982;8.560;2023-04-15T16:11:51;8.30;99.90
58983;DHT22;44771;49.982;8.560;2023-04-15T16:16:53;8.20;99.90
58983;DHT22;44771;49.982;8.560;2023-04-15T16:21:56;8.10;99.90
58983;DHT22;44771;49.982;8.560;2023-04-15T16:26:58;8.10;99.90
58983;DHT22;44771;49.982;8.560;2023-04-15T16:32:00;8.00;99.90
58983;DHT22;44771;49.982;8.560;2023-04-15T16:37:03;7.90;99.90
58983;DHT22;44771;49.982;8.560;2023-04-15T16:42:05;8.00;99.90
58983;DHT22;44771;49.982;8.560;2023-04-15T16:47:06;7.90;99.90
58983;DHT22;44771;49.982;8.560;2023-04-15T16:52:09;7.90;99.90
58983;DHT22;44771;49.982;8.560;2023-04-15T16:57:11;7.90;99.90
58983;DHT22;44771;49.982;8.560;2023-04-15T17:02:13;7.90;99.90
58983;DHT22;44771;49.982;8.560;2023-04-15T17:07:16;7.80;99.90
58983;DHT22;44771;49.982;8.560;2023-04-15T17:12:18;7.70;99.90
58983;DHT22;44771;49.982;8.560;2023-04-15T17:17:20;7.70;99.90
58983;DHT22;44771;49.982;8.560;2023-04-15T17:22:23;7.70;99.90
58983;DHT22;44771;49.982;8.560;2023-04-15T17:27:25;7.70;99.90
58983;DHT22;44771;49.982;8.560;2023-04-15T17:32:27;7.70;99.90
58983;DHT22;44771;49.982;8.560;2023-04-15T17:37:30;7.70;99.90
58983;DHT22;44771;49.982;8.560;2023-04-15T17:42:31;7.70;99.90
58983;DHT22;44771;49.982;8.560;2023-04-15T17:47:33;7.70;99.90
58983;DHT22;44771;49.982;8.560;2023-04-15T17:52:36;7.70;99.90
58983;DHT22;44771;49.982;8.560;2023-04-15T17:57:38;7.60;99.90
58983;DHT22;44771;49.982;8.560;2023-04-15T18:02:40;7.70;99.90
58983;DHT22;44771;49.982;8.560;2023-04-15T18:07:43;7.70;99.90
58983;DHT22;44771;49.982;8.560;2023-04-15T18:12:45;7.70;99.90
58983;DHT22;44771;49.982;8.560;2023-04-15T18:17:47;7.60;99.90
58983;DHT22;44771;49.982;8.560;2023-04-15T18:22:50;7.60;99.90
58983;DHT22;44771;49.982;8.560;2023-04-15T18:27:53;7.60;99.90
58983;DHT22;44771;49.982;8.560;2023-04-15T18:32:55;7.60;99.90
58983;DHT22;44771;49.982;8.560;2023-04-15T18:37:58;7.60;99.90
58983;DHT22;44771;49.982;8.560;2023-04-15T18:43:00;7.60;99.90
58983;DHT22;44771;49.982;8.560;2023-04-15T18:48:02;7.60;99.90
58983;DHT22;44771;49.982;8.560;2023-04-15T18:53:06;7.60;99.90
58983;DHT22;44771;49.982;8.560;2023-04-15T18:58:07;7.50;99.90
58983;DHT22;44771;49.982;8.560;2023-04-15T19:03:10;7.50;99.90
58983;DHT22;44771;49.982;8.560;2023-04-15T19:08:13;7.50;99.90
58983;DHT22;44771;49.982;8.560;2023-04-15T19:13:15;7.50;99.90
58983;DHT22;44771;49.982;8.560;2023-04-15T19:18:20;7.60;99.90
58983;DHT22;44771;49.982;8.560;2023-04-15T19:23:23;7.60;99.90
58983;DHT22;44771;49.982;8.560;2023-04-15T19:28:25;7.50;99.90
58983;DHT22;44771;49.982;8.560;2023-04-15T19:33:27;7.50;99.90
58983;DHT22;44771;49.982;8.560;2023-04-15T19:38:30;7.50;99.90
58983;DHT22;44771;49.982;8.560;2023-04-15T19:43:32;7.50;99.90
58983;DHT22;44771;49.982;8.560;2023-04-15T19:48:34;7.50;99.90
58983;DHT22;44771;49.982;8.560;2023-04-15T19:53:37;7.50;99.90
58983;DHT22;44771;49.982;8.560;2023-04-15T19:58:39;7.40;99.90
58983;DHT22;44771;49.982;8.560;2023-04-15T20:03:40;7.50;99.90
58983;DHT22;44771;49.982;8.560;2023-04-15T20:08:44;7.50;99.90
58983;DHT22;44771;49.982;8.560;2023-04-15T20:13:46;7.50;99.90
58983;DHT22;44771;49.982;8.560;2023-04-15T20:18:47;7.40;99.90
58983;DHT22;44771;49.982;8.560;2023-04-15T20:23:50;7.50;99.90
58983;DHT22;44771;49.982;8.560;2023-04-15T20:28:52;7.50;99.90
58983;DHT22;44771;49.982;8.560;2023-04-15T20:33:55;7.50;99.90
58983;DHT22;44771;49.982;8.560;2023-04-15T20:38:59;7.50;99.90
58983;DHT22;44771;49.982;8.560;2023-04-15T20:44:00;7.50;99.90
58983;DHT22;44771;49.982;8.560;2023-04-15T20:49:02;7.60;99.90
58983;DHT22;44771;49.982;8.560;2023-04-15T20:54:06;7.50;99.90
58983;DHT22;44771;49.982;8.560;2023-04-15T20:59:08;7.50;99.90
58983;DHT22;44771;49.982;8.560;2023-04-15T21:04:09;7.50;99.90
58983;DHT22;44771;49.982;8.560;2023-04-15T21:09:13;7.50;99.90
58983;DHT22;44771;49.982;8.560;2023-04-15T21:14:15;7.50;99.90
58983;DHT22;44771;49.982;8.560;2023-04-15T21:19:17;7.60;99.90
58983;DHT22;44771;49.982;8.560;2023-04-15T21:24:20;7.60;99.90
58983;DHT22;44771;49.982;8.560;2023-04-15T21:29:22;7.60;99.90
58983;DHT22;44771;49.982;8.560;2023-04-15T21:34:24;7.60;99.90
58983;DHT22;44771;49.982;8.560;2023-04-15T21:39:27;7.50;99.90
58983;DHT22;44771;49.982;8.560;2023-04-15T21:44:29;7.50;99.90
58983;DHT22;44771;49.982;8.560;2023-04-15T21:49:31;7.50;99.90
58983;DHT22;44771;49.982;8.560;2023-04-15T21:54:34;7.50;99.90
58983;DHT22;44771;49.982;8.560;2023-04-15T21:59:36;7.50;99.90
58983;DHT22;44771;49.982;8.560;2023-04-15T22:04:37;7.50;99.90
58983;DHT22;44771;49.982;8.560;2023-04-15T22:09:40;7.50;99.90
58983;DHT22;44771;49.982;8.560;2023-04-15T22:14:42;7.50;99.90
58983;DHT22;44771;49.982;8.560;2023-04-15T22:19:44;7.50;99.90
58983;DHT22;44771;49.982;8.560;2023-04-15T22:24:47;7.50;99.90
58983;DHT22;44771;49.982;8.560;2023-04-15T22:29:49;7.60;99.90
58983;DHT22;44771;49.982;8.560;2023-04-15T22:34:50;7.60;99.90
58983;DHT22;44771;49.982;8.560;2023-04-15T22:39:53;7.70;99.90
58983;DHT22;44771;49.982;8.560;2023-04-15T22:44:55;7.70;99.90
58983;DHT22;44771;49.982;8.560;2023-04-15T22:49:57;7.60;99.90
58983;DHT22;44771;49.982;8.560;2023-04-15T22:55:00;7.60;99.90
58983;DHT22;44771;49.982;8.560;2023-04-15T23:00:02;7.70;99.90
58983;DHT22;44771;49.982;8.560;2023-04-15T23:05:05;7.60;99.90
58983;DHT22;44771;49.982;8.560;2023-04-15T23:10:15;7.60;99.90
58983;DHT22;44771;49.982;8.560;2023-04-15T23:15:16;7.60;99.90
58983;DHT22;44771;49.982;8.560;2023-04-15T23:20:18;7.70;99.90
58983;DHT22;44771;49.982;8.560;2023-04-15T23:25:21;7.70;99.90
58983;DHT22;44771;49.982;8.560;2023-04-15T23:30:23;7.70;99.90
58983;DHT22;44771;49.982;8.560;2023-04-15T23:35:25;7.70;99.90
58983;DHT22;44771;49.982;8.560;2023-04-15T23:40:29;7.70;99.90
58983;DHT22;44771;49.982;8.560;2023-04-15T23:45:30;7.60;99.90
58983;DHT22;44771;49.982;8.560;2023-04-15T23:50:32;7.60;99.90
58983;DHT22;44771;49.982;8.560;2023-04-15T23:55:36;7.60;99.90
